This is the latest recevied weather packets stored in our database for station/object OE-11053. If no packets are shown the sender has not sent any weather packets the latest 10 day(s).
| Time | Temp. | Humidity | Pressure | Rain* | Wind** | Luminosity | Snow |
|---|---|---|---|---|---|---|---|
| 1787892923 | 19.44° C | 75% | 1011 hPa | 0 mm | - | 6 W/m² | - |
| 1787892095 | 20° C | 71% | 1010.8 hPa | 0 mm | - | 0 W/m² | - |
| 1787891722 | 19.44° C | 73% | 1010.9 hPa | 0 mm | - | 0 W/m² | - |
| 1787891123 | 18.89° C | 75% | 1011.2 hPa | 0 mm | - | 0 W/m² | - |
| 1787890295 | 18.89° C | 77% | 1011.4 hPa | 0 mm | - | 0 W/m² | - |
| 1787889923 | 18.89° C | 76% | 1011.4 hPa | 0 mm | - | 0 W/m² | - |
| 1787889323 | 19.44° C | 73% | 1011.3 hPa | 0 mm | - | 0 W/m² | - |
| 1787888722 | 20° C | 70% | 1011.2 hPa | 0 mm | - | 0 W/m² | - |
| 1787888122 | 20° C | 71% | 1011.3 hPa | 0 mm | - | 0 W/m² | - |
| 1787887522 | 20.56° C | 69% | 1011.2 hPa | 0 mm | - | 0 W/m² | - |
| 1787886692 | 20.56° C | 68% | 1011.3 hPa | 0 mm | - | 0 W/m² | - |
| 1787886321 | 20.56° C | 69% | 1011.4 hPa | 0 mm | - | 0 W/m² | - |
| 1787885723 | 20.56° C | 69% | 1011.4 hPa | 0 mm | - | 0 W/m² | - |
| 1787884896 | 20.56° C | 67% | 1011.2 hPa | 0 mm | - | 0 W/m² | - |
| 1787884523 | 20.56° C | 67% | 1011.3 hPa | 0 mm | - | 0 W/m² | - |
| 1787883923 | 20.56° C | 68% | 1011.3 hPa | 0 mm | - | 0 W/m² | - |
| 1787883096 | 20.56° C | 69% | 1011.3 hPa | 0 mm | - | 0 W/m² | - |
| 1787882723 | 20.56° C | 68% | 1011.3 hPa | 0 mm | - | 0 W/m² | - |
| 1787882119 | 21.11° C | 66% | 1011.2 hPa | 0 mm | - | 0 W/m² | - |
| 1787881296 | 21.11° C | 66% | 1011.3 hPa | 0 mm | - | 0 W/m² | - |
| 1787880923 | 21.67° C | 65% | 1011.3 hPa | 0 mm | - | 0 W/m² | - |
| 1787880323 | 21.67° C | 64% | 1011.3 hPa | 0 mm | - | 0 W/m² | - |
| 1787879495 | 21.67° C | 63% | 1011.2 hPa | 0 mm | - | 0 W/m² | - |
| 1787879122 | 21.67° C | 62% | 1011.2 hPa | 0 mm | - | 0 W/m² | - |
| 1787878523 | 22.22° C | 62% | 1011.2 hPa | 0 mm | - | 0 W/m² | - |
* Rain latest hour (hover to see other rain measurements)
** Current wind speed in m/s (hover to see current wind gust speed)